sensor_id;sensor_type;location;lat;lon;timestamp;pressure;altitude;pressure_sealevel;temperature;humidity
47726;BME280;33483;48.294;16.388;2023-07-29T00:01:03;99135.53;;;20.54;100.00
47726;BME280;33483;48.294;16.388;2023-07-29T00:03:30;99124.38;;;20.45;100.00
47726;BME280;33483;48.294;16.388;2023-07-29T00:05:59;99128.00;;;20.36;100.00
47726;BME280;33483;48.294;16.388;2023-07-29T00:08:26;99134.84;;;20.33;100.00
47726;BME280;33483;48.294;16.388;2023-07-29T00:10:53;99143.22;;;20.21;100.00
47726;BME280;33483;48.294;16.388;2023-07-29T00:13:20;99137.91;;;20.15;100.00
47726;BME280;33483;48.294;16.388;2023-07-29T00:15:48;99140.88;;;20.17;100.00
47726;BME280;33483;48.294;16.388;2023-07-29T00:18:15;99133.94;;;20.19;100.00
47726;BME280;33483;48.294;16.388;2023-07-29T00:20:43;99129.47;;;20.15;100.00
47726;BME280;33483;48.294;16.388;2023-07-29T00:23:10;99133.78;;;20.17;100.00
47726;BME280;33483;48.294;16.388;2023-07-29T00:25:37;99125.63;;;20.21;100.00
47726;BME280;33483;48.294;16.388;2023-07-29T00:28:04;99124.13;;;20.20;100.00
47726;BME280;33483;48.294;16.388;2023-07-29T00:30:32;99129.75;;;20.20;100.00
47726;BME280;33483;48.294;16.388;2023-07-29T00:32:59;99128.53;;;20.23;100.00
47726;BME280;33483;48.294;16.388;2023-07-29T00:35:26;99118.91;;;20.26;100.00
47726;BME280;33483;48.294;16.388;2023-07-29T00:37:54;99117.97;;;20.33;100.00
47726;BME280;33483;48.294;16.388;2023-07-29T00:40:22;99121.16;;;20.39;100.00
47726;BME280;33483;48.294;16.388;2023-07-29T00:42:50;99114.66;;;20.36;100.00
47726;BME280;33483;48.294;16.388;2023-07-29T00:45:21;99112.84;;;20.41;100.00
47726;BME280;33483;48.294;16.388;2023-07-29T00:47:49;99115.19;;;20.44;100.00
47726;BME280;33483;48.294;16.388;2023-07-29T00:50:17;99108.81;;;20.44;100.00
47726;BME280;33483;48.294;16.388;2023-07-29T00:52:45;99108.66;;;20.42;100.00
47726;BME280;33483;48.294;16.388;2023-07-29T00:55:15;99118.34;;;20.39;100.00
47726;BME280;33483;48.294;16.388;2023-07-29T00:57:42;99103.91;;;20.44;100.00
47726;BME280;33483;48.294;16.388;2023-07-29T01:00:15;99105.75;;;20.40;100.00
47726;BME280;33483;48.294;16.388;2023-07-29T01:02:43;99106.13;;;20.46;100.00
47726;BME280;33483;48.294;16.388;2023-07-29T01:05:13;99105.78;;;20.51;100.00
47726;BME280;33483;48.294;16.388;2023-07-29T01:07:54;99108.72;;;20.53;100.00
47726;BME280;33483;48.294;16.388;2023-07-29T01:20:48;99104.97;;;20.60;100.00
47726;BME280;33483;48.294;16.388;2023-07-29T01:23:15;99111.69;;;20.67;100.00
47726;BME280;33483;48.294;16.388;2023-07-29T01:25:43;99107.31;;;20.75;100.00
47726;BME280;33483;48.294;16.388;2023-07-29T01:28:20;99113.44;;;20.72;100.00
47726;BME280;33483;48.294;16.388;2023-07-29T01:31:16;99116.72;;;20.68;100.00
47726;BME280;33483;48.294;16.388;2023-07-29T01:33:42;99120.75;;;20.65;100.00
47726;BME280;33483;48.294;16.388;2023-07-29T01:36:13;99116.22;;;20.60;100.00
47726;BME280;33483;48.294;16.388;2023-07-29T01:38:42;99119.50;;;20.57;100.00
47726;BME280;33483;48.294;16.388;2023-07-29T01:41:11;99121.09;;;20.60;100.00
47726;BME280;33483;48.294;16.388;2023-07-29T01:43:39;99126.53;;;20.67;100.00
47726;BME280;33483;48.294;16.388;2023-07-29T01:46:11;99127.47;;;20.60;100.00
47726;BME280;33483;48.294;16.388;2023-07-29T01:48:41;99115.09;;;20.54;100.00
47726;BME280;33483;48.294;16.388;2023-07-29T01:51:10;99127.31;;;20.47;100.00
47726;BME280;33483;48.294;16.388;2023-07-29T01:53:37;99118.94;;;20.37;100.00
47726;BME280;33483;48.294;16.388;2023-07-29T01:56:04;99127.00;;;20.31;100.00
47726;BME280;33483;48.294;16.388;2023-07-29T01:58:33;99123.06;;;20.25;100.00
47726;BME280;33483;48.294;16.388;2023-07-29T02:01:00;99128.44;;;20.21;100.00
47726;BME280;33483;48.294;16.388;2023-07-29T02:03:28;99125.63;;;20.21;100.00
47726;BME280;33483;48.294;16.388;2023-07-29T02:05:59;99118.38;;;20.17;100.00
47726;BME280;33483;48.294;16.388;2023-07-29T02:08:26;99111.41;;;20.19;100.00
47726;BME280;33483;48.294;16.388;2023-07-29T02:10:54;99110.81;;;20.20;100.00
47726;BME280;33483;48.294;16.388;2023-07-29T02:13:21;99112.06;;;20.29;100.00
47726;BME280;33483;48.294;16.388;2023-07-29T02:15:51;99112.34;;;20.33;100.00
47726;BME280;33483;48.294;16.388;2023-07-29T02:18:18;99106.69;;;20.33;100.00
47726;BME280;33483;48.294;16.388;2023-07-29T02:20:46;99097.50;;;20.32;100.00
47726;BME280;33483;48.294;16.388;2023-07-29T02:23:16;99101.66;;;20.31;100.00
47726;BME280;33483;48.294;16.388;2023-07-29T02:25:46;99097.19;;;20.38;100.00
47726;BME280;33483;48.294;16.388;2023-07-29T02:28:13;99101.19;;;20.35;100.00
47726;BME280;33483;48.294;16.388;2023-07-29T02:30:41;99104.41;;;20.41;100.00
47726;BME280;33483;48.294;16.388;2023-07-29T02:33:15;99114.06;;;20.38;100.00
47726;BME280;33483;48.294;16.388;2023-07-29T02:35:42;99114.88;;;20.29;100.00
47726;BME280;33483;48.294;16.388;2023-07-29T02:38:09;99107.25;;;20.20;100.00
47726;BME280;33483;48.294;16.388;2023-07-29T02:40:37;99120.09;;;20.23;100.00
47726;BME280;33483;48.294;16.388;2023-07-29T02:43:04;99119.84;;;20.19;100.00
47726;BME280;33483;48.294;16.388;2023-07-29T02:45:32;99122.81;;;20.21;100.00
47726;BME280;33483;48.294;16.388;2023-07-29T02:48:02;99120.09;;;20.23;100.00
47726;BME280;33483;48.294;16.388;2023-07-29T02:50:30;99126.00;;;20.27;100.00
47726;BME280;33483;48.294;16.388;2023-07-29T02:52:57;99121.34;;;20.31;100.00
47726;BME280;33483;48.294;16.388;2023-07-29T02:55:25;99124.78;;;20.30;100.00
47726;BME280;33483;48.294;16.388;2023-07-29T02:57:54;99131.44;;;20.34;100.00
47726;BME280;33483;48.294;16.388;2023-07-29T03:00:21;99136.81;;;20.42;100.00
47726;BME280;33483;48.294;16.388;2023-07-29T03:02:49;99136.47;;;20.47;100.00
47726;BME280;33483;48.294;16.388;2023-07-29T03:05:17;99136.66;;;20.61;100.00
47726;BME280;33483;48.294;16.388;2023-07-29T03:07:44;99143.63;;;20.60;100.00
47726;BME280;33483;48.294;16.388;2023-07-29T03:10:12;99150.25;;;20.64;100.00
47726;BME280;33483;48.294;16.388;2023-07-29T03:12:40;99138.88;;;20.62;100.00
47726;BME280;33483;48.294;16.388;2023-07-29T03:15:07;99138.13;;;20.62;100.00
47726;BME280;33483;48.294;16.388;2023-07-29T03:17:35;99141.69;;;20.62;100.00
47726;BME280;33483;48.294;16.388;2023-07-29T03:20:05;99134.22;;;20.67;100.00
47726;BME280;33483;48.294;16.388;2023-07-29T03:22:33;99132.91;;;20.79;100.00
47726;BME280;33483;48.294;16.388;2023-07-29T03:25:01;99133.53;;;20.78;100.00
47726;BME280;33483;48.294;16.388;2023-07-29T03:27:28;99136.47;;;20.80;100.00
47726;BME280;33483;48.294;16.388;2023-07-29T03:29:57;99140.63;;;20.79;100.00
47726;BME280;33483;48.294;16.388;2023-07-29T03:32:24;99136.59;;;20.82;100.00
47726;BME280;33483;48.294;16.388;2023-07-29T03:34:51;99137.94;;;20.81;100.00
47726;BME280;33483;48.294;16.388;2023-07-29T03:37:19;99128.13;;;20.82;100.00
47726;BME280;33483;48.294;16.388;2023-07-29T03:39:47;99136.59;;;20.82;100.00
47726;BME280;33483;48.294;16.388;2023-07-29T03:42:18;99136.47;;;20.80;100.00
47726;BME280;33483;48.294;16.388;2023-07-29T03:44:46;99131.91;;;20.75;100.00
47726;BME280;33483;48.294;16.388;2023-07-29T03:47:14;99140.84;;;20.71;100.00
47726;BME280;33483;48.294;16.388;2023-07-29T03:49:55;99142.19;;;20.70;100.00
47726;BME280;33483;48.294;16.388;2023-07-29T03:52:22;99132.88;;;20.68;100.00
47726;BME280;33483;48.294;16.388;2023-07-29T03:54:52;99146.25;;;20.67;100.00
47726;BME280;33483;48.294;16.388;2023-07-29T03:57:22;99152.47;;;20.66;100.00
47726;BME280;33483;48.294;16.388;2023-07-29T03:59:50;99148.91;;;20.65;100.00
47726;BME280;33483;48.294;16.388;2023-07-29T04:02:17;99150.16;;;20.74;100.00
47726;BME280;33483;48.294;16.388;2023-07-29T04:04:45;99146.75;;;20.75;100.00
47726;BME280;33483;48.294;16.388;2023-07-29T04:07:14;99150.03;;;20.72;100.00
47726;BME280;33483;48.294;16.388;2023-07-29T04:09:42;99148.44;;;20.69;100.00
47726;BME280;33483;48.294;16.388;2023-07-29T04:12:10;99144.66;;;20.76;100.00
47726;BME280;33483;48.294;16.388;2023-07-29T04:14:38;99146.59;;;20.73;100.00
47726;BME280;33483;48.294;16.388;2023-07-29T04:17:05;99158.88;;;20.78;100.00
47726;BME280;33483;48.294;16.388;2023-07-29T04:19:37;99155.59;;;20.81;100.00
47726;BME280;33483;48.294;16.388;2023-07-29T04:22:04;99163.69;;;20.87;100.00
47726;BME280;33483;48.294;16.388;2023-07-29T04:24:31;99165.28;;;20.90;100.00
47726;BME280;33483;48.294;16.388;2023-07-29T04:26:58;99172.94;;;20.99;100.00
47726;BME280;33483;48.294;16.388;2023-07-29T04:29:25;99173.31;;;21.05;100.00
47726;BME280;33483;48.294;16.388;2023-07-29T04:31:53;99179.19;;;21.09;100.00
47726;BME280;33483;48.294;16.388;2023-07-29T04:34:21;99173.69;;;21.11;100.00
47726;BME280;33483;48.294;16.388;2023-07-29T04:36:48;99184.97;;;21.11;100.00
47726;BME280;33483;48.294;16.388;2023-07-29T04:39:18;99181.41;;;21.10;100.00
47726;BME280;33483;48.294;16.388;2023-07-29T04:41:52;99183.88;;;21.16;100.00
47726;BME280;33483;48.294;16.388;2023-07-29T04:44:22;99185.59;;;21.21;100.00
47726;BME280;33483;48.294;16.388;2023-07-29T04:46:49;99191.22;;;21.21;100.00
47726;BME280;33483;48.294;16.388;2023-07-29T04:49:17;99181.66;;;21.26;100.00
47726;BME280;33483;48.294;16.388;2023-07-29T04:51:44;99187.56;;;21.30;100.00
47726;BME280;33483;48.294;16.388;2023-07-29T04:54:12;99185.38;;;21.29;100.00
47726;BME280;33483;48.294;16.388;2023-07-29T04:56:39;99186.47;;;21.35;100.00
47726;BME280;33483;48.294;16.388;2023-07-29T04:59:08;99186.59;;;21.37;100.00
47726;BME280;33483;48.294;16.388;2023-07-29T05:01:35;99187.09;;;21.34;100.00
47726;BME280;33483;48.294;16.388;2023-07-29T05:04:03;99190.50;;;21.32;100.00
47726;BME280;33483;48.294;16.388;2023-07-29T05:06:33;99187.81;;;21.34;100.00
47726;BME280;33483;48.294;16.388;2023-07-29T05:09:13;99196.38;;;21.36;100.00
47726;BME280;33483;48.294;16.388;2023-07-29T05:11:40;99197.13;;;21.48;100.00
47726;BME280;33483;48.294;16.388;2023-07-29T05:14:07;99199.34;;;21.61;100.00
47726;BME280;33483;48.294;16.388;2023-07-29T05:16:36;99199.13;;;21.80;100.00
47726;BME280;33483;48.294;16.388;2023-07-29T05:19:04;99206.47;;;21.97;100.00
47726;BME280;33483;48.294;16.388;2023-07-29T05:21:31;99208.06;;;22.11;100.00
47726;BME280;33483;48.294;16.388;2023-07-29T05:23:59;99209.13;;;22.18;100.00
47726;BME280;33483;48.294;16.388;2023-07-29T05:26:26;99207.53;;;22.26;100.00
47726;BME280;33483;48.294;16.388;2023-07-29T05:28:55;99209.84;;;22.30;100.00
47726;BME280;33483;48.294;16.388;2023-07-29T05:31:22;99214.34;;;22.47;100.00
47726;BME280;33483;48.294;16.388;2023-07-29T05:33:50;99220.63;;;22.57;100.00
47726;BME280;33483;48.294;16.388;2023-07-29T05:36:17;99216.41;;;22.69;100.00
47726;BME280;33483;48.294;16.388;2023-07-29T05:38:47;99222.50;;;22.77;98.11
47726;BME280;33483;48.294;16.388;2023-07-29T05:41:14;99213.25;;;22.88;98.18
47726;BME280;33483;48.294;16.388;2023-07-29T05:43:41;99214.03;;;23.02;97.29
47726;BME280;33483;48.294;16.388;2023-07-29T05:46:10;99211.72;;;22.99;95.24
47726;BME280;33483;48.294;16.388;2023-07-29T05:48:38;99215.56;;;22.92;95.43
47726;BME280;33483;48.294;16.388;2023-07-29T05:51:08;99225.09;;;22.98;96.06
47726;BME280;33483;48.294;16.388;2023-07-29T05:53:35;99226.75;;;22.90;95.18
47726;BME280;33483;48.294;16.388;2023-07-29T05:56:02;99222.06;;;22.94;96.76
47726;BME280;33483;48.294;16.388;2023-07-29T05:58:30;99226.25;;;22.93;96.64
47726;BME280;33483;48.294;16.388;2023-07-29T06:00:59;99223.66;;;22.97;96.24
47726;BME280;33483;48.294;16.388;2023-07-29T06:03:27;99222.66;;;22.93;96.42
47726;BME280;33483;48.294;16.388;2023-07-29T06:05:54;99222.66;;;22.93;94.73
47726;BME280;33483;48.294;16.388;2023-07-29T06:08:21;99220.06;;;22.97;93.91
47726;BME280;33483;48.294;16.388;2023-07-29T06:10:51;99227.72;;;22.94;92.75
47726;BME280;33483;48.294;16.388;2023-07-29T06:13:19;99237.66;;;22.95;93.20
47726;BME280;33483;48.294;16.388;2023-07-29T06:15:46;99229.19;;;22.95;92.76
47726;BME280;33483;48.294;16.388;2023-07-29T06:18:15;99225.06;;;23.10;90.75
47726;BME280;33483;48.294;16.388;2023-07-29T06:20:42;99231.09;;;23.29;90.17
47726;BME280;33483;48.294;16.388;2023-07-29T06:23:10;99229.69;;;23.56;90.02
47726;BME280;33483;48.294;16.388;2023-07-29T06:25:37;99231.31;;;23.72;88.71
47726;BME280;33483;48.294;16.388;2023-07-29T06:28:05;99237.50;;;23.69;87.27
47726;BME280;33483;48.294;16.388;2023-07-29T06:30:32;99238.25;;;23.83;85.91
47726;BME280;33483;48.294;16.388;2023-07-29T06:32:59;99228.50;;;23.86;86.65
47726;BME280;33483;48.294;16.388;2023-07-29T06:35:29;99239.59;;;23.82;84.02
47726;BME280;33483;48.294;16.388;2023-07-29T06:37:56;99244.94;;;23.89;84.08
47726;BME280;33483;48.294;16.388;2023-07-29T06:40:23;99241.63;;;24.06;83.64
47726;BME280;33483;48.294;16.388;2023-07-29T06:42:50;99238.56;;;24.29;82.01
47726;BME280;33483;48.294;16.388;2023-07-29T06:45:19;99233.16;;;24.63;79.75
47726;BME280;33483;48.294;16.388;2023-07-29T06:47:49;99225.94;;;25.18;76.44
47726;BME280;33483;48.294;16.388;2023-07-29T06:50:16;99225.19;;;25.02;75.00
47726;BME280;33483;48.294;16.388;2023-07-29T06:52:44;99223.84;;;25.18;73.53
47726;BME280;33483;48.294;16.388;2023-07-29T06:55:11;99227.94;;;25.44;74.38
47726;BME280;33483;48.294;16.388;2023-07-29T06:57:39;99228.09;;;25.33;72.24
47726;BME280;33483;48.294;16.388;2023-07-29T07:00:06;99223.06;;;25.02;72.91
47726;BME280;33483;48.294;16.388;2023-07-29T07:02:34;99222.94;;;24.85;73.69
47726;BME280;33483;48.294;16.388;2023-07-29T07:05:02;99219.91;;;24.67;74.81
47726;BME280;33483;48.294;16.388;2023-07-29T07:07:29;99222.13;;;24.69;75.31
47726;BME280;33483;48.294;16.388;2023-07-29T07:09:57;99219.84;;;24.51;75.47
47726;BME280;33483;48.294;16.388;2023-07-29T07:12:27;99220.72;;;24.40;77.14
47726;BME280;33483;48.294;16.388;2023-07-29T07:14:54;99220.00;;;24.40;78.56
47726;BME280;33483;48.294;16.388;2023-07-29T07:17:21;99215.38;;;24.33;78.28
47726;BME280;33483;48.294;16.388;2023-07-29T07:19:48;99215.59;;;24.23;77.10
47726;BME280;33483;48.294;16.388;2023-07-29T07:22:17;99220.34;;;24.19;77.70
47726;BME280;33483;48.294;16.388;2023-07-29T07:24:44;99219.72;;;24.07;77.85
47726;BME280;33483;48.294;16.388;2023-07-29T07:27:11;99214.56;;;24.17;77.53
47726;BME280;33483;48.294;16.388;2023-07-29T07:29:38;99218.63;;;24.27;76.92
47726;BME280;33483;48.294;16.388;2023-07-29T07:32:08;99219.16;;;25.85;67.44
47726;BME280;33483;48.294;16.388;2023-07-29T07:34:35;99226.50;;;28.40;56.11
47726;BME280;33483;48.294;16.388;2023-07-29T07:37:02;99231.59;;;30.52;48.50
47726;BME280;33483;48.294;16.388;2023-07-29T07:39:31;99232.38;;;31.75;44.14
47726;BME280;33483;48.294;16.388;2023-07-29T07:41:58;99238.75;;;32.43;42.36
47726;BME280;33483;48.294;16.388;2023-07-29T07:44:26;99226.81;;;33.46;39.77
47726;BME280;33483;48.294;16.388;2023-07-29T07:46:54;99235.22;;;32.88;39.95
47726;BME280;33483;48.294;16.388;2023-07-29T07:49:21;99233.50;;;33.61;39.13
47726;BME280;33483;48.294;16.388;2023-07-29T07:51:49;99244.22;;;34.12;37.87
47726;BME280;33483;48.294;16.388;2023-07-29T07:54:16;99244.16;;;33.52;37.27
47726;BME280;33483;48.294;16.388;2023-07-29T07:56:43;99237.44;;;33.89;36.94
47726;BME280;33483;48.294;16.388;2023-07-29T07:59:10;99230.91;;;33.85;37.08
47726;BME280;33483;48.294;16.388;2023-07-29T08:01:38;99241.16;;;33.96;37.01
47726;BME280;33483;48.294;16.388;2023-07-29T08:04:06;99237.34;;;34.41;35.18
47726;BME280;33483;48.294;16.388;2023-07-29T08:06:33;99232.56;;;34.66;34.78
47726;BME280;33483;48.294;16.388;2023-07-29T08:09:03;99234.34;;;34.29;35.76
47726;BME280;33483;48.294;16.388;2023-07-29T08:11:30;99240.78;;;34.28;35.29
47726;BME280;33483;48.294;16.388;2023-07-29T08:13:58;99238.28;;;34.64;34.55
47726;BME280;33483;48.294;16.388;2023-07-29T08:16:28;99238.34;;;34.68;34.56
47726;BME280;33483;48.294;16.388;2023-07-29T08:18:55;99235.78;;;35.04;34.10
47726;BME280;33483;48.294;16.388;2023-07-29T08:21:24;99234.78;;;33.50;36.18
47726;BME280;33483;48.294;16.388;2023-07-29T08:23:51;99232.28;;;33.78;35.68
47726;BME280;33483;48.294;16.388;2023-07-29T08:26:21;99231.00;;;33.93;35.72
47726;BME280;33483;48.294;16.388;2023-07-29T08:28:50;99228.75;;;34.43;34.85
47726;BME280;33483;48.294;16.388;2023-07-29T08:31:21;99223.00;;;34.47;34.78
47726;BME280;33483;48.294;16.388;2023-07-29T08:33:48;99219.84;;;34.93;34.12
47726;BME280;33483;48.294;16.388;2023-07-29T08:36:15;99235.03;;;35.01;34.04
47726;BME280;33483;48.294;16.388;2023-07-29T08:38:42;99228.03;;;35.33;33.40
47726;BME280;33483;48.294;16.388;2023-07-29T08:41:19;99219.06;;;34.88;34.16
47726;BME280;33483;48.294;16.388;2023-07-29T08:44:06;99221.06;;;34.70;35.13
47726;BME280;33483;48.294;16.388;2023-07-29T08:46:39;99213.84;;;35.67;33.26
47726;BME280;33483;48.294;16.388;2023-07-29T08:49:08;99214.78;;;36.28;32.22
47726;BME280;33483;48.294;16.388;2023-07-29T08:51:38;99206.69;;;35.84;32.42
47726;BME280;33483;48.294;16.388;2023-07-29T08:54:05;99214.63;;;35.79;31.75
47726;BME280;33483;48.294;16.388;2023-07-29T08:56:33;99213.31;;;36.29;31.94
47726;BME280;33483;48.294;16.388;2023-07-29T08:59:00;99209.38;;;35.42;32.23
47726;BME280;33483;48.294;16.388;2023-07-29T09:01:29;99213.00;;;35.48;33.08
47726;BME280;33483;48.294;16.388;2023-07-29T09:03:57;99203.06;;;35.75;32.67
47726;BME280;33483;48.294;16.388;2023-07-29T09:06:25;99201.63;;;35.80;32.98
47726;BME280;33483;48.294;16.388;2023-07-29T09:08:56;99201.69;;;35.90;33.34
47726;BME280;33483;48.294;16.388;2023-07-29T09:11:27;99208.13;;;35.81;33.00
47726;BME280;33483;48.294;16.388;2023-07-29T09:13:54;99207.44;;;35.86;32.65
47726;BME280;33483;48.294;16.388;2023-07-29T09:16:22;99200.81;;;35.60;32.64
47726;BME280;33483;48.294;16.388;2023-07-29T09:18:50;99196.53;;;35.73;32.14
47726;BME280;33483;48.294;16.388;2023-07-29T09:21:18;99197.16;;;35.45;32.61
47726;BME280;33483;48.294;16.388;2023-07-29T09:23:51;99190.19;;;36.04;32.26
47726;BME280;33483;48.294;16.388;2023-07-29T09:26:22;99190.19;;;36.14;31.73
47726;BME280;33483;48.294;16.388;2023-07-29T09:28:56;99181.06;;;34.28;33.77
47726;BME280;33483;48.294;16.388;2023-07-29T09:31:24;99185.63;;;33.83;34.36
47726;BME280;33483;48.294;16.388;2023-07-29T09:33:58;99186.22;;;33.74;35.99
47726;BME280;33483;48.294;16.388;2023-07-29T09:36:26;99189.41;;;34.72;33.83
47726;BME280;33483;48.294;16.388;2023-07-29T09:38:56;99175.13;;;34.88;33.13
47726;BME280;33483;48.294;16.388;2023-07-29T09:41:27;99172.66;;;35.44;32.78
47726;BME280;33483;48.294;16.388;2023-07-29T09:43:59;99180.50;;;35.34;33.09
47726;BME280;33483;48.294;16.388;2023-07-29T09:46:31;99174.16;;;35.61;32.56
47726;BME280;33483;48.294;16.388;2023-07-29T09:48:58;99164.16;;;35.82;32.42
47726;BME280;33483;48.294;16.388;2023-07-29T09:51:26;99165.75;;;36.46;30.88
47726;BME280;33483;48.294;16.388;2023-07-29T09:53:53;99155.63;;;36.61;30.75
47726;BME280;33483;48.294;16.388;2023-07-29T09:56:24;99157.00;;;36.03;31.10
47726;BME280;33483;48.294;16.388;2023-07-29T09:58:52;99159.16;;;35.99;30.95
47726;BME280;33483;48.294;16.388;2023-07-29T10:01:22;99150.53;;;36.17;32.14
47726;BME280;33483;48.294;16.388;2023-07-29T10:03:49;99150.56;;;36.33;31.02
47726;BME280;33483;48.294;16.388;2023-07-29T10:06:17;99147.66;;;36.27;30.61
47726;BME280;33483;48.294;16.388;2023-07-29T10:08:47;99154.13;;;36.03;31.04
47726;BME280;33483;48.294;16.388;2023-07-29T10:11:16;99150.50;;;35.95;32.00
47726;BME280;33483;48.294;16.388;2023-07-29T10:13:47;99151.88;;;35.82;31.00
47726;BME280;33483;48.294;16.388;2023-07-29T10:16:32;99136.06;;;35.93;31.81
47726;BME280;33483;48.294;16.388;2023-07-29T10:19:01;99140.25;;;35.54;31.17
47726;BME280;33483;48.294;16.388;2023-07-29T10:21:31;99136.72;;;35.73;31.37
47726;BME280;33483;48.294;16.388;2023-07-29T10:24:02;99132.50;;;36.06;31.29
47726;BME280;33483;48.294;16.388;2023-07-29T10:26:32;99134.66;;;36.22;30.53
47726;BME280;33483;48.294;16.388;2023-07-29T10:29:00;99133.94;;;36.05;31.05
47726;BME280;33483;48.294;16.388;2023-07-29T10:31:42;99140.41;;;35.98;30.32
47726;BME280;33483;48.294;16.388;2023-07-29T10:34:10;99149.06;;;36.08;31.42
47726;BME280;33483;48.294;16.388;2023-07-29T10:36:48;99138.13;;;35.64;30.91
47726;BME280;33483;48.294;16.388;2023-07-29T10:39:16;99144.25;;;34.94;31.18
47726;BME280;33483;48.294;16.388;2023-07-29T10:42:02;99134.31;;;35.22;32.42
47726;BME280;33483;48.294;16.388;2023-07-29T10:47:19;99135.25;;;35.66;30.99
47726;BME280;33483;48.294;16.388;2023-07-29T10:49:52;99132.50;;;36.20;30.55
47726;BME280;33483;48.294;16.388;2023-07-29T10:52:37;99125.00;;;35.31;30.67
47726;BME280;33483;48.294;16.388;2023-07-29T10:55:22;99121.50;;;35.51;32.01
47726;BME280;33483;48.294;16.388;2023-07-29T10:58:03;99116.06;;;34.83;31.66
47726;BME280;33483;48.294;16.388;2023-07-29T11:00:31;99107.97;;;34.57;31.44
47726;BME280;33483;48.294;16.388;2023-07-29T11:03:03;99101.16;;;35.14;30.66
47726;BME280;33483;48.294;16.388;2023-07-29T11:05:45;99097.88;;;34.56;30.89
47726;BME280;33483;48.294;16.388;2023-07-29T11:14:01;99099.25;;;34.45;31.22
47726;BME280;33483;48.294;16.388;2023-07-29T11:16:28;99081.31;;;33.17;32.48
47726;BME280;33483;48.294;16.388;2023-07-29T11:18:56;99081.44;;;31.88;34.22
47726;BME280;33483;48.294;16.388;2023-07-29T11:21:26;99078.44;;;31.44;35.15
47726;BME280;33483;48.294;16.388;2023-07-29T11:23:53;99069.59;;;30.99;36.60
47726;BME280;33483;48.294;16.388;2023-07-29T11:26:20;99056.34;;;30.81;37.35
47726;BME280;33483;48.294;16.388;2023-07-29T11:28:47;99065.31;;;30.68;36.57
47726;BME280;33483;48.294;16.388;2023-07-29T11:31:14;99061.09;;;30.71;37.08
47726;BME280;33483;48.294;16.388;2023-07-29T11:33:42;99068.78;;;30.62;36.84
47726;BME280;33483;48.294;16.388;2023-07-29T11:36:18;99066.63;;;30.31;37.70
47726;BME280;33483;48.294;16.388;2023-07-29T11:38:50;99047.31;;;30.04;37.67
47726;BME280;33483;48.294;16.388;2023-07-29T11:41:19;99069.38;;;30.00;37.47
47726;BME280;33483;48.294;16.388;2023-07-29T11:43:46;99062.41;;;29.79;37.18
47726;BME280;33483;48.294;16.388;2023-07-29T11:46:14;99066.94;;;29.88;37.83
47726;BME280;33483;48.294;16.388;2023-07-29T11:48:41;99065.75;;;30.25;37.11
47726;BME280;33483;48.294;16.388;2023-07-29T11:51:11;99059.72;;;30.74;37.23
47726;BME280;33483;48.294;16.388;2023-07-29T11:53:40;99052.34;;;30.95;36.66
47726;BME280;33483;48.294;16.388;2023-07-29T11:56:09;99047.16;;;30.55;37.01
47726;BME280;33483;48.294;16.388;2023-07-29T11:58:37;99050.94;;;30.34;36.70
47726;BME280;33483;48.294;16.388;2023-07-29T12:01:04;99041.63;;;30.32;37.00
47726;BME280;33483;48.294;16.388;2023-07-29T12:03:32;99049.59;;;30.69;36.95
47726;BME280;33483;48.294;16.388;2023-07-29T12:05:59;99037.75;;;30.80;36.95
47726;BME280;33483;48.294;16.388;2023-07-29T12:08:30;99041.47;;;31.23;35.87
47726;BME280;33483;48.294;16.388;2023-07-29T12:11:35;99028.84;;;32.13;35.28
47726;BME280;33483;48.294;16.388;2023-07-29T12:14:02;99041.78;;;32.60;34.38
47726;BME280;33483;48.294;16.388;2023-07-29T12:16:39;99034.44;;;33.00;34.39
47726;BME280;33483;48.294;16.388;2023-07-29T12:19:07;99045.53;;;32.74;32.92
47726;BME280;33483;48.294;16.388;2023-07-29T12:21:34;99038.16;;;32.59;33.51
47726;BME280;33483;48.294;16.388;2023-07-29T12:24:15;99036.72;;;32.58;34.09
47726;BME280;33483;48.294;16.388;2023-07-29T12:26:42;99035.66;;;32.85;33.73
47726;BME280;33483;48.294;16.388;2023-07-29T12:29:13;99021.84;;;33.28;33.47
47726;BME280;33483;48.294;16.388;2023-07-29T12:31:41;99040.97;;;32.55;34.51
47726;BME280;33483;48.294;16.388;2023-07-29T12:34:18;99033.47;;;32.34;35.40
47726;BME280;33483;48.294;16.388;2023-07-29T12:36:47;99029.31;;;31.60;36.88
47726;BME280;33483;48.294;16.388;2023-07-29T12:41:48;99028.66;;;32.01;34.59
47726;BME280;33483;48.294;16.388;2023-07-29T12:44:15;99034.31;;;32.41;34.36
47726;BME280;33483;48.294;16.388;2023-07-29T12:46:59;99042.69;;;32.74;34.42
47726;BME280;33483;48.294;16.388;2023-07-29T12:49:26;99024.88;;;32.34;35.13
47726;BME280;33483;48.294;16.388;2023-07-29T12:55:08;99027.44;;;30.69;40.55
47726;BME280;33483;48.294;16.388;2023-07-29T12:57:58;99036.94;;;30.46;41.94
47726;BME280;33483;48.294;16.388;2023-07-29T13:00:25;99035.06;;;30.27;41.87
47726;BME280;33483;48.294;16.388;2023-07-29T13:02:53;99029.06;;;29.88;42.99
47726;BME280;33483;48.294;16.388;2023-07-29T13:05:21;99026.66;;;29.78;43.90
47726;BME280;33483;48.294;16.388;2023-07-29T13:08:04;99022.59;;;29.87;43.76
47726;BME280;33483;48.294;16.388;2023-07-29T13:10:37;99023.44;;;29.92;43.14
47726;BME280;33483;48.294;16.388;2023-07-29T13:13:04;99025.38;;;30.40;42.77
47726;BME280;33483;48.294;16.388;2023-07-29T13:15:31;99021.00;;;30.37;41.45
47726;BME280;33483;48.294;16.388;2023-07-29T13:17:59;99020.03;;;30.58;41.12
47726;BME280;33483;48.294;16.388;2023-07-29T13:20:25;99025.69;;;30.54;41.97